^^
Grace C. Lehan Memorial Weather Station Historical Data
Daily Summary for February 14, 2021 Units:  Metric    English   Both
Daily Weekly Monthly Yearly
  High: Low: Average:
Temperature: 12.6 °C 3.4 °C 7.3 °C
Dew Point: 2.1 °C -7.4 °C -2.2 °C
Humidity: 75% 30% 53%
Wind Speed: 11.6km/h 0km/h 2.1km/h
Wind Gust: 32.2km/h - -
Wind- - WNW
Pressure: 1036.8 hPa 1021.2 hPa -
Precipitation: 0 mm    
 
 
Tabular Data for February 14, 2021
Time Temperature Dew Point Pressure Wind Wind Speed Wind Gust Humidity Rainfall Rate (Hourly) solar
00:01 5.2 °C -2.8 °C 1021.2 hPa SSW 1.9 km/h 3.2 km/h 56% 0 mm 0 W/m2
00:30 5.3 °C -2.7 °C 1021.2 hPa SSW 1.6 km/h 4.8 km/h 56% 0 mm 0 W/m2
01:00 4.8 °C -3 °C 1021.6 hPa Calm   1.6 km/h 57% 0 mm 0 W/m2
01:30 4.6 °C -3.2 °C 1021.9 hPa Calm     57% 0 mm 0 W/m2
02:30 5.1 °C -3.2 °C 1022.9 hPa Calm   4.8 km/h 55% 0 mm 0 W/m2
03:00 4.1 °C -3.2 °C 1022.9 hPa Calm   3.2 km/h 59% 0 mm 0 W/m2
03:30 4.1 °C -3.4 °C 1023.2 hPa Calm   3.2 km/h 58% 0 mm 0 W/m2
04:04 4.4 °C -2.9 °C 1023.9 hPa WNW 2.1 km/h 4.8 km/h 58.9% 0 mm 0 W/m2
04:09 4.6 °C -2.6 °C 1023.9 hPa WNW 2.1 km/h 6.4 km/h 59.8% 0 mm 0 W/m2
04:14 4.8 °C -2.3 °C 1024.3 hPa WNW 0.5 km/h 6.4 km/h 59.6% 0 mm 0 W/m2
04:19 5.1 °C -2.1 °C 1024.3 hPa WNW 1.3 km/h 6.4 km/h 60% 0 mm 0 W/m2
04:24 5.2 °C -1.9 °C 1024.3 hPa WNW 1.9 km/h 6.4 km/h 60% 0 mm 0 W/m2
04:29 5.3 °C -1.6 °C 1024.3 hPa WNW 3.5 km/h 9.7 km/h 61% 0 mm 0 W/m2
04:34 5.4 °C -1.5 °C 1024.3 hPa WNW 3.5 km/h 9.7 km/h 61% 0 mm 0 W/m2
04:39 5.5 °C -1.4 °C 1024.6 hPa WNW 3.1 km/h 9.7 km/h 61% 0 mm 0 W/m2
04:44 5.6 °C -1.3 °C 1024.6 hPa WNW 3.7 km/h 11.3 km/h 61.4% 0 mm 0 W/m2
04:49 5.6 °C -1.2 °C 1024.6 hPa WNW 4 km/h 11.3 km/h 62% 0 mm 0 W/m2
04:54 5.6 °C -1.2 °C 1024.6 hPa WNW 1.8 km/h 11.3 km/h 62% 0 mm 0 W/m2
04:59 5.5 °C -1.2 °C 1024.6 hPa WNW 1.8 km/h 11.3 km/h 62% 0 mm 0 W/m2
05:04 5.4 °C -1.2 °C 1024.9 hPa WNW 1 km/h 11.3 km/h 62% 0 mm 0 W/m2
05:09 5.4 °C -1.1 °C 1024.9 hPa WNW 2.4 km/h 6.4 km/h 62.8% 0 mm 0 W/m2
05:14 5.3 °C -0.9 °C 1024.9 hPa WNW 1.9 km/h 6.4 km/h 63.9% 0 mm 0 W/m2
05:19 5.3 °C -0.9 °C 1024.9 hPa WNW 0.6 km/h 6.4 km/h 64.4% 0 mm 0 W/m2
05:24 5.3 °C -0.8 °C 1025.3 hPa Calm   6.4 km/h 65% 0 mm 0 W/m2
05:29 5.2 °C -0.8 °C 1025.3 hPa Calm   6.4 km/h 65% 0 mm 0 W/m2
05:34 5.2 °C -0.8 °C 1025.3 hPa Calm   6.4 km/h 65.2% 0 mm 0 W/m2
05:39 5.1 °C -0.8 °C 1025.3 hPa Calm     66% 0 mm 0 W/m2
05:44 5 °C -0.8 °C 1025.6 hPa Calm     66% 0 mm 0 W/m2
05:49 4.9 °C -0.7 °C 1025.6 hPa Calm     67.2% 0 mm 0 W/m2
05:54 4.8 °C -0.6 °C 1026 hPa Calm     68% 0 mm 0 W/m2
05:59 4.8 °C -0.6 °C 1026 hPa Calm     68% 0 mm 0 W/m2
06:04 4.8 °C -0.7 °C 1026 hPa Calm     68% 0 mm 0 W/m2
06:09 4.7 °C -0.5 °C 1026 hPa Calm     68.9% 0 mm 0 W/m2
06:14 4.7 °C -0.5 °C 1026 hPa Calm     69% 0 mm 0 W/m2
06:19 4.7 °C -0.3 °C 1026.3 hPa Calm     69.8% 0 mm 0 W/m2
06:24 4.7 °C -0.3 °C 1026.6 hPa WNW 0.5 km/h 4.8 km/h 70% 0 mm 0 W/m2
06:29 4.7 °C -0.3 °C 1026.6 hPa WNW 1 km/h 4.8 km/h 70% 0 mm 0 W/m2
06:34 4.7 °C -0.2 °C 1026.6 hPa WNW 1.3 km/h 4.8 km/h 70.7% 0 mm 0 W/m2
06:39 4.7 °C -0.1 °C 1027 hPa WNW 3.1 km/h 6.4 km/h 71.2% 0 mm 0 W/m2
06:44 4.7 °C -0.1 °C 1027 hPa WNW 3.4 km/h 6.4 km/h 71.5% 0 mm 0 W/m2
06:49 4.6 °C -0.2 °C 1027 hPa WNW 0.5 km/h 6.4 km/h 71% 0 mm 0 W/m2
06:54 4.5 °C -0.2 °C 1027.3 hPa Calm   6.4 km/h 71.7% 0 mm 0 W/m2
06:59 4.4 °C -0.2 °C 1027 hPa WNW 1 km/h 6.4 km/h 72.3% 0 mm 0 W/m2
07:04 4.3 °C -0.1 °C 1027.3 hPa WNW 1.9 km/h 6.4 km/h 73.2% 0 mm 0 W/m2
07:09 4.3 °C 0.1 °C 1027.3 hPa WNW 2.7 km/h 6.4 km/h 74% 0 mm 5 W/m2
07:14 4.3 °C 0.2 °C 1027.3 hPa WNW 3.7 km/h 11.3 km/h 74.7% 0 mm 7 W/m2
07:19 4.3 °C 0.3 °C 1027.3 hPa NW 1.3 km/h 11.3 km/h 75% 0 mm 11 W/m2
07:24 4.4 °C 0.3 °C 1027.7 hPa Calm   11.3 km/h 75% 0 mm 12 W/m2
07:29 4.3 °C 0.3 °C 1027.7 hPa Calm   11.3 km/h 75% 0 mm 18 W/m2
07:34 4.4 °C 0.3 °C 1027.7 hPa NW 1.9 km/h 11.3 km/h 75% 0 mm 18 W/m2
07:39 4.4 °C 0.4 °C 1027.7 hPa NW 3.2 km/h 6.4 km/h 75% 0 mm 40 W/m2
07:44 4.5 °C 0.4 °C 1028 hPa NW 2.6 km/h 6.4 km/h 75% 0 mm 51 W/m2
07:49 4.7 °C 0.6 °C 1028 hPa NW 5.1 km/h 8 km/h 75% 0 mm 62 W/m2
07:54 4.8 °C 0.6 °C 1028 hPa NW 4 km/h 9.7 km/h 74.2% 0 mm 69 W/m2
07:59 5 °C 0.9 °C 1028.3 hPa NW 4.8 km/h 14.5 km/h 74.8% 0 mm 86 W/m2
08:04 5.6 °C 1.3 °C 1028 hPa NW 1.6 km/h 1.6 km/h 74% 0 mm 90 W/m2
08:09 5.7 °C 1.3 °C 1028.3 hPa NW 0.6 km/h 4.8 km/h 73.3% 0 mm 125 W/m2
08:14 6.1 °C 1.5 °C 1028.7 hPa NW 1 km/h 8 km/h 72.3% 0 mm 142 W/m2
08:19 6.6 °C 1.7 °C 1028.7 hPa NNW 2.9 km/h 8 km/h 71.3% 0 mm 160 W/m2
08:24 6.9 °C 2 °C 1028.7 hPa NNW 3.5 km/h 17.7 km/h 70.7% 0 mm 181 W/m2
08:29 7.3 °C 2 °C 1029 hPa NW 3.5 km/h 17.7 km/h 68.7% 0 mm 158 W/m2
08:34 7.7 °C 1.9 °C 1028.7 hPa NNW 4.2 km/h 17.7 km/h 67.2% 0 mm 165 W/m2
08:39 7.8 °C 2.1 °C 1029 hPa NNW 4.3 km/h 14.5 km/h 66.8% 0 mm 176 W/m2
08:44 8 °C 2.1 °C 1029 hPa NW 5.3 km/h 14.5 km/h 66.1% 0 mm 158 W/m2
08:49 8.1 °C 2 °C 1029 hPa NW 3.1 km/h 14.5 km/h 65.5% 0 mm 185 W/m2
08:54 8.2 °C 2.1 °C 1029 hPa NNW 6.8 km/h 17.7 km/h 65.4% 0 mm 223 W/m2
08:59 8.3 °C 2.1 °C 1029 hPa NW 8 km/h 20.9 km/h 64.9% 0 mm 267 W/m2
09:04 8.6 °C 2.1 °C 1029.3 hPa NNW 9.8 km/h 22.5 km/h 63.6% 0 mm 234 W/m2
09:09 8.7 °C 2.1 °C 1029.3 hPa NNW 4.7 km/h 22.5 km/h 63.3% 0 mm 267 W/m2
09:14 8.8 °C 2.1 °C 1029.3 hPa NW 9.5 km/h 22.5 km/h 62.8% 0 mm 267 W/m2
09:19 8.8 °C 1.9 °C 1029.7 hPa NNW 10.1 km/h 29 km/h 61.8% 0 mm 269 W/m2
09:24 8.8 °C 1.9 °C 1029.7 hPa NNW 8 km/h 29 km/h 62% 0 mm 237 W/m2
09:29 8.9 °C 1.7 °C 1029.7 hPa NNW 11.6 km/h 32.2 km/h 60.5% 0 mm 225 W/m2
09:34 8.8 °C 1.4 °C 1029.7 hPa NNW 9.5 km/h 32.2 km/h 59.7% 0 mm 202 W/m2
09:39 8.9 °C 1.6 °C 1030 hPa NNW 4 km/h 27.4 km/h 60% 0 mm 221 W/m2
09:44 9.1 °C 1.5 °C 1030 hPa NNW 10.6 km/h 27.4 km/h 59.2% 0 mm 218 W/m2
09:49 9.2 °C 1.5 °C 1030 hPa NNW 6.6 km/h 27.4 km/h 58.7% 0 mm 213 W/m2
09:54 9.2 °C 1.4 °C 1030 hPa NNW 5.3 km/h 27.4 km/h 58.1% 0 mm 178 W/m2
09:59 9.2 °C 1.4 °C 1030.4 hPa NNW 2.6 km/h 27.4 km/h 58.2% 0 mm 211 W/m2
10:04 9.3 °C 1.5 °C 1030.4 hPa NW 5.6 km/h 27.4 km/h 58% 0 mm 221 W/m2
10:09 9.4 °C 1.5 °C 1030.4 hPa NNW 7.9 km/h 17.7 km/h 57.5% 0 mm 352 W/m2
10:14 9.8 °C 1.8 °C 1030.4 hPa NNW 2.4 km/h 17.7 km/h 57.7% 0 mm 399 W/m2
10:19 10.2 °C 2 °C 1030.7 hPa NW 6.6 km/h 25.7 km/h 56.7% 0 mm 461 W/m2
10:24 10.6 °C 1.8 °C 1030.7 hPa NW 7.7 km/h 25.7 km/h 54.8% 0 mm 429 W/m2
10:29 10.6 °C 1.6 °C 1030.7 hPa NW 7.1 km/h 25.7 km/h 54% 0 mm 431 W/m2
10:34 10.5 °C 1.5 °C 1030.7 hPa NW 7.4 km/h 25.7 km/h 53.8% 0 mm 510 W/m2
10:39 10.4 °C 1.4 °C 1030.7 hPa NNW 9.5 km/h 24.1 km/h 53.5% 0 mm 322 W/m2
10:44 10.3 °C 1.4 °C 1030.7 hPa NW 7.6 km/h 24.1 km/h 54% 0 mm 341 W/m2
10:49 10.2 °C 1.1 °C 1030.7 hPa NW 6.8 km/h 24.1 km/h 53% 0 mm 165 W/m2
10:54 10 °C 1.1 °C 1030.7 hPa NNW 6.3 km/h 24.1 km/h 53.7% 0 mm 156 W/m2
10:59 9.8 °C 0.9 °C 1030.4 hPa NW 5.5 km/h 24.1 km/h 53.9% 0 mm 151 W/m2
11:04 9.7 °C 0.8 °C 1030.4 hPa NW 4.3 km/h 24.1 km/h 54% 0 mm 121 W/m2
11:09 9.6 °C 0.9 °C 1030.4 hPa NNW 1.4 km/h 16.1 km/h 54.6% 0 mm 107 W/m2
11:14 9.6 °C 0.8 °C 1030.4 hPa NW 3.7 km/h 16.1 km/h 54.3% 0 mm 137 W/m2
11:19 9.6 °C 0.8 °C 1030.4 hPa NNW 2.1 km/h 16.1 km/h 54.1% 0 mm 160 W/m2
11:24 9.8 °C 1.1 °C 1030.4 hPa NW 4.7 km/h 19.3 km/h 54.6% 0 mm 183 W/m2
11:29 10 °C 1.4 °C 1030.4 hPa WNW 3.7 km/h 19.3 km/h 55% 0 mm 265 W/m2
11:34 10.2 °C 1.4 °C 1030.4 hPa NW 2.9 km/h 19.3 km/h 54.5% 0 mm 399 W/m2
11:39 10.4 °C 1.3 °C 1030.7 hPa WNW 6 km/h 22.5 km/h 53% 0 mm 330 W/m2
11:44 10.6 °C 0.8 °C 1030.7 hPa NW 5.5 km/h 22.5 km/h 51% 0 mm 255 W/m2
11:49 10.6 °C 0.7 °C 1030.7 hPa NW 6.3 km/h 22.5 km/h 50.5% 0 mm 188 W/m2
11:54 10.6 °C 0.6 °C 1030.7 hPa NW 8 km/h 22.5 km/h 50.2% 0 mm 130 W/m2
11:59 10.3 °C 0.3 °C 1030.7 hPa NW 2.1 km/h 22.5 km/h 49.8% 0 mm 118 W/m2
12:00 10.2 °C 0.3 °C 1030.7 hPa WNW 1.6 km/h 22.5 km/h 50% 0 mm 91 W/m2
12:09 10.1 °C 0.5 °C 1030.7 hPa NNW 3.1 km/h 9.7 km/h 51.5% 0 mm 434 W/m2
12:14 10.2 °C 0.7 °C 1030.7 hPa NNW 3.9 km/h 9.7 km/h 51.9% 0 mm 501 W/m2
12:19 10.4 °C 0.7 °C 1030.7 hPa NNW 3.5 km/h 11.3 km/h 51% 0 mm 327 W/m2
12:24 10.6 °C 1 °C 1030.4 hPa NW 0.8 km/h 11.3 km/h 51.3% 0 mm 70 W/m2
12:29 10.7 °C 0.8 °C 1030.7 hPa NW 3.9 km/h 17.7 km/h 50.5% 0 mm 158 W/m2
12:34 10.8 °C 0.8 °C 1030.7 hPa NW 5.3 km/h 17.7 km/h 50.2% 0 mm 422 W/m2
12:39 10.9 °C 0.7 °C 1030.7 hPa NW 3.1 km/h 17.7 km/h 49.3% 0 mm 471 W/m2
12:44 11.2 °C 0.9 °C 1030.7 hPa NW 5.3 km/h 17.7 km/h 49.2% 0 mm 466 W/m2
12:49 11.4 °C 0.8 °C 1030.7 hPa NW 3.7 km/h 17.7 km/h 47.8% 0 mm 244 W/m2
12:54 11.6 °C 0.9 °C 1030.4 hPa NW 3.2 km/h 17.7 km/h 47.8% 0 mm 167 W/m2
12:59 11.7 °C 0.7 °C 1030.4 hPa NNW 3.4 km/h 17.7 km/h 46.7% 0 mm 79 W/m2
13:04 11.8 °C 0.8 °C 1030.4 hPa NNW 1.6 km/h 17.7 km/h 47% 0 mm 334 W/m2
13:09 11.9 °C 0.7 °C 1030.7 hPa NNW 1.6 km/h 8 km/h 46.1% 0 mm 209 W/m2
13:14 12 °C 0.6 °C 1030.7 hPa NNW 1.6 km/h 9.7 km/h 45.6% 0 mm 179 W/m2
13:19 12.2 °C 0.2 °C 1030.7 hPa NNW 2.9 km/h 9.7 km/h 43.7% 0 mm 234 W/m2
13:24 12.4 °C -0.6 °C 1030.7 hPa NNW 1 km/h 9.7 km/h 40.6% 0 mm 341 W/m2
13:29 12.6 °C -0.4 °C 1030.7 hPa NNW 2.7 km/h 9.7 km/h 40.8% 0 mm 308 W/m2
13:34 12.6 °C -0.6 °C 1030.4 hPa WNW 3.2 km/h 9.7 km/h 40.3% 0 mm 207 W/m2
13:39 12.4 °C -0.4 °C 1030.4 hPa NW 0.2 km/h 9.7 km/h 41% 0 mm 209 W/m2
13:44 12.4 °C -0.7 °C 1030.4 hPa WNW 3.7 km/h 9.7 km/h 40.5% 0 mm 135 W/m2
13:49 12.2 °C -0.9 °C 1030.7 hPa NW 1 km/h 9.7 km/h 40.3% 0 mm 160 W/m2
13:54 12 °C -1.1 °C 1030.7 hPa North 3.9 km/h 19.3 km/h 40.1% 0 mm 160 W/m2
13:59 11.8 °C -1.2 °C 1030.7 hPa NNW 1 km/h 19.3 km/h 40.2% 0 mm 285 W/m2
14:04 11.9 °C -1.1 °C 1030.7 hPa North 0.5 km/h 19.3 km/h 40.5% 0 mm 276 W/m2
14:09 12.1 °C -1.4 °C 1030.7 hPa NNE 0.6 km/h 6.4 km/h 39.2% 0 mm 178 W/m2
14:14 12.3 °C -1.4 °C 1030.7 hPa North 0.5 km/h 6.4 km/h 38.3% 0 mm 158 W/m2
14:19 12.5 °C -1.6 °C 1030.7 hPa NNW 2.1 km/h 8 km/h 37.6% 0 mm 142 W/m2
14:22 12.5 °C -1.9 °C 1030.7 hPa NNW 1.9 km/h 8 km/h 36.8% 0 mm 178 W/m2
14:30 12.4 °C -2.6 °C 1030.7 hPa NNW 1.6 km/h 11.3 km/h 35% 0 mm 127 W/m2
15:00 11.7 °C -4.8 °C 1031.4 hPa NW 3.2 km/h 17.7 km/h 31% 0 mm 25 W/m2
15:30 10.8 °C -5.6 °C 1032.1 hPa North 1.6 km/h 14.5 km/h 31% 0 mm 19 W/m2
16:04 10.1 °C -6.2 °C 1032.7 hPa North 0.2 km/h 14.5 km/h 31% 0 mm 19 W/m2
16:09 10 °C -6.4 °C 1032.7 hPa NNW 0.3 km/h 3.2 km/h 31% 0 mm 7 W/m2
16:14 9.8 °C -6.5 °C 1032.7 hPa NNW 0.5 km/h 4.8 km/h 31% 0 mm 5 W/m2
16:19 9.7 °C -6.5 °C 1032.7 hPa NNW 0.3 km/h 4.8 km/h 31.1% 0 mm 0 W/m2
16:24 9.7 °C -6.7 °C 1033.1 hPa NNW 0.2 km/h 4.8 km/h 31% 0 mm 0 W/m2
16:29 9.6 °C -6.8 °C 1033.1 hPa Calm   4.8 km/h 30.9% 0 mm 0 W/m2
16:34 9.4 °C -7.3 °C 1033.1 hPa Calm   4.8 km/h 30% 0 mm 0 W/m2
16:39 9.3 °C -7.1 °C 1033.1 hPa Calm     30.6% 0 mm 0 W/m2
16:44 9.2 °C -7.1 °C 1033.1 hPa Calm     31% 0 mm 0 W/m2
16:49 9.1 °C -7.1 °C 1033.1 hPa Calm     31.3% 0 mm 0 W/m2
16:54 8.9 °C -7.3 °C 1033.4 hPa Calm     31% 0 mm 0 W/m2
16:59 8.8 °C -7.4 °C 1033.4 hPa Calm     31% 0 mm 0 W/m2
17:04 8.7 °C -7.4 °C 1033.4 hPa Calm     31.3% 0 mm 0 W/m2
17:09 8.5 °C -7.2 °C 1033.7 hPa Calm     32.1% 0 mm 0 W/m2
17:14 8.4 °C -6.9 °C 1033.7 hPa Calm     33% 0 mm 0 W/m2
17:19 8.2 °C -7.1 °C 1033.7 hPa Calm     33% 0 mm 0 W/m2
17:24 8.1 °C -6.9 °C 1034.1 hPa Calm     33.7% 0 mm 0 W/m2
17:29 7.9 °C -6.6 °C 1034.1 hPa Calm     34.8% 0 mm 0 W/m2
17:34 7.8 °C -6.3 °C 1034.1 hPa Calm     36% 0 mm 0 W/m2
17:39 7.6 °C -6.5 °C 1034.1 hPa Calm     36% 0 mm 0 W/m2
17:44 7.4 °C -6.7 °C 1034.4 hPa Calm     36% 0 mm 0 W/m2
17:49 7.3 °C -6.8 °C 1034.4 hPa Calm     36.1% 0 mm 0 W/m2
17:54 7.1 °C -6.4 °C 1034.4 hPa NNW 0.5 km/h 4.8 km/h 37.6% 0 mm 0 W/m2
17:59 6.9 °C -6.4 °C 1034.4 hPa NNW 0.8 km/h 8 km/h 38% 0 mm 0 W/m2
18:04 6.8 °C -6.5 °C 1034.4 hPa Calm   8 km/h 38% 0 mm 0 W/m2
18:09 6.8 °C -6.6 °C 1034.4 hPa Calm   3.2 km/h 38% 0 mm 0 W/m2
18:14 6.7 °C -6.6 °C 1034.4 hPa Calm   3.2 km/h 38.1% 0 mm 0 W/m2
18:19 6.6 °C -6.4 °C 1034.8 hPa Calm   3.2 km/h 39% 0 mm 0 W/m2
18:24 6.5 °C -6.2 °C 1034.8 hPa Calm   3.2 km/h 39.9% 0 mm 0 W/m2
18:29 6.4 °C -6.2 °C 1034.8 hPa Calm   3.2 km/h 40% 0 mm 0 W/m2
18:34 6.3 °C -6.3 °C 1034.8 hPa Calm   3.2 km/h 40% 0 mm 0 W/m2
18:39 6.2 °C -6.1 °C 1034.8 hPa Calm   1.6 km/h 41% 0 mm 0 W/m2
18:44 6.1 °C -5.9 °C 1034.8 hPa Calm   1.6 km/h 41.7% 0 mm 0 W/m2
18:49 6.1 °C -5.9 °C 1034.8 hPa Calm   1.6 km/h 42% 0 mm 0 W/m2
18:54 5.9 °C -6 °C 1034.8 hPa Calm   1.6 km/h 42% 0 mm 0 W/m2
18:59 5.8 °C -6.1 °C 1035.1 hPa Calm   1.6 km/h 42% 0 mm 0 W/m2
19:04 5.7 °C -6 °C 1035.1 hPa Calm   1.6 km/h 42.6% 0 mm 0 W/m2
19:09 5.6 °C -5.9 °C 1035.1 hPa Calm   1.6 km/h 43.2% 0 mm 0 W/m2
19:14 5.5 °C -5.7 °C 1035.4 hPa Calm   1.6 km/h 44.4% 0 mm 0 W/m2
19:19 5.4 °C -5.6 °C 1035.4 hPa Calm   1.6 km/h 45.1% 0 mm 0 W/m2
19:24 5.3 °C -5.7 °C 1035.4 hPa Calm   1.6 km/h 45% 0 mm 0 W/m2
19:29 5.2 °C -5.7 °C 1035.4 hPa Calm   1.6 km/h 45.1% 0 mm 0 W/m2
19:34 5.1 °C -5.7 °C 1035.4 hPa Calm   1.6 km/h 45.6% 0 mm 0 W/m2
19:39 5 °C -5.9 °C 1035.8 hPa Calm     45% 0 mm 0 W/m2
19:44 4.9 °C -6 °C 1035.8 hPa Calm     45% 0 mm 0 W/m2
19:49 4.8 °C -5.8 °C 1035.8 hPa Calm     45.9% 0 mm 0 W/m2
19:54 4.8 °C -5.7 °C 1035.8 hPa Calm     46.5% 0 mm 0 W/m2
19:59 4.7 °C -5.6 °C 1035.8 hPa Calm     47% 0 mm 0 W/m2
20:04 4.6 °C -6 °C 1035.8 hPa Calm     46% 0 mm 0 W/m2
20:09 4.6 °C -5.9 °C 1035.8 hPa Calm     46.4% 0 mm 0 W/m2
20:14 4.5 °C -5.8 °C 1035.8 hPa Calm     47% 0 mm 0 W/m2
20:19 4.4 °C -5.9 °C 1035.8 hPa Calm     47% 0 mm 0 W/m2
20:24 4.4 °C -5.9 °C 1035.8 hPa Calm     47.1% 0 mm 0 W/m2
20:29 4.3 °C -5.4 °C 1035.8 hPa Calm     49% 0 mm 0 W/m2
20:34 4.2 °C -5.4 °C 1036.1 hPa NNW 0.2 km/h 3.2 km/h 49.7% 0 mm 0 W/m2
20:39 4.1 °C -5.4 °C 1036.1 hPa Calm   3.2 km/h 49.9% 0 mm 0 W/m2
20:44 4.1 °C -5.7 °C 1036.1 hPa Calm   3.2 km/h 49.1% 0 mm 0 W/m2
20:49 4.1 °C -5.7 °C 1036.1 hPa Calm   3.2 km/h 49% 0 mm 0 W/m2
20:54 4.1 °C -5.6 °C 1036.1 hPa Calm   3.2 km/h 49.5% 0 mm 0 W/m2
20:59 4 °C -5.7 °C 1036.1 hPa NNW 0.2 km/h 4.8 km/h 49% 0 mm 0 W/m2
21:04 4 °C -5.7 °C 1036.1 hPa NNW 0.3 km/h 4.8 km/h 49% 0 mm 0 W/m2
21:09 4.1 °C -5.7 °C 1036.1 hPa Calm   4.8 km/h 49% 0 mm 0 W/m2
21:14 4.1 °C -5.6 °C 1036.1 hPa NNW 0.2 km/h 4.8 km/h 49.2% 0 mm 0 W/m2
21:19 4 °C -5.7 °C 1036.1 hPa Calm   4.8 km/h 49.3% 0 mm 0 W/m2
21:24 3.9 °C -5.7 °C 1036.1 hPa Calm   4.8 km/h 49.2% 0 mm 0 W/m2
21:29 3.9 °C -5.4 °C 1036.5 hPa Calm   4.8 km/h 50.5% 0 mm 0 W/m2
21:34 3.8 °C -5.6 °C 1036.5 hPa Calm   4.8 km/h 50.2% 0 mm 0 W/m2
21:39 3.8 °C -5.5 °C 1036.5 hPa Calm     50.6% 0 mm 0 W/m2
21:44 3.7 °C -5.2 °C 1036.5 hPa Calm     52% 0 mm 0 W/m2
21:49 3.7 °C -5.6 °C 1036.8 hPa Calm     50.8% 0 mm 0 W/m2
21:54 3.7 °C -5.8 °C 1036.8 hPa Calm     50% 0 mm 0 W/m2
21:59 3.7 °C -5.3 °C 1036.8 hPa Calm     51.8% 0 mm 0 W/m2
22:04 3.6 °C -5.3 °C 1036.8 hPa Calm     52.2% 0 mm 0 W/m2
22:08 3.4 °C -5.7 °C 1036.8 hPa Calm     50.9% 0 mm 0 W/m2
Hartford County Weather
Compliments of Weather Underground - 4 mb